sensor_id;sensor_type;location;lat;lon;timestamp;temperature;humidity
15394;DHT22;7795;47.986;11.868;2022-08-07T00:01:29;21.40;78.20
15394;DHT22;7795;47.986;11.868;2022-08-07T00:03:55;21.30;78.10
15394;DHT22;7795;47.986;11.868;2022-08-07T00:06:21;21.30;78.00
15394;DHT22;7795;47.986;11.868;2022-08-07T00:08:46;21.30;78.90
15394;DHT22;7795;47.986;11.868;2022-08-07T00:11:14;21.30;78.00
15394;DHT22;7795;47.986;11.868;2022-08-07T00:13:39;21.30;78.10
15394;DHT22;7795;47.986;11.868;2022-08-07T00:16:07;21.30;78.00
15394;DHT22;7795;47.986;11.868;2022-08-07T00:18:32;21.20;77.90
15394;DHT22;7795;47.986;11.868;2022-08-07T00:21:00;21.20;77.90
15394;DHT22;7795;47.986;11.868;2022-08-07T00:23:26;21.20;78.10
15394;DHT22;7795;47.986;11.868;2022-08-07T00:25:52;21.20;78.10
15394;DHT22;7795;47.986;11.868;2022-08-07T00:28:19;21.20;78.10
15394;DHT22;7795;47.986;11.868;2022-08-07T00:30:45;21.20;77.90
15394;DHT22;7795;47.986;11.868;2022-08-07T00:33:11;21.20;77.90
15394;DHT22;7795;47.986;11.868;2022-08-07T00:35:37;21.20;77.80
15394;DHT22;7795;47.986;11.868;2022-08-07T00:38:04;21.20;77.80
15394;DHT22;7795;47.986;11.868;2022-08-07T00:40:30;21.20;77.60
15394;DHT22;7795;47.986;11.868;2022-08-07T00:42:56;21.20;77.60
15394;DHT22;7795;47.986;11.868;2022-08-07T00:45:23;21.10;77.50
15394;DHT22;7795;47.986;11.868;2022-08-07T00:47:49;21.20;77.50
15394;DHT22;7795;47.986;11.868;2022-08-07T00:50:16;21.10;77.40
15394;DHT22;7795;47.986;11.868;2022-08-07T00:52:42;21.10;77.30
15394;DHT22;7795;47.986;11.868;2022-08-07T00:55:09;21.20;77.00
15394;DHT22;7795;47.986;11.868;2022-08-07T00:57:35;21.10;77.00
15394;DHT22;7795;47.986;11.868;2022-08-07T01:00:01;21.10;76.90
15394;DHT22;7795;47.986;11.868;2022-08-07T01:02:28;21.10;76.70
15394;DHT22;7795;47.986;11.868;2022-08-07T01:04:54;21.10;76.60
15394;DHT22;7795;47.986;11.868;2022-08-07T01:07:21;21.10;76.80
15394;DHT22;7795;47.986;11.868;2022-08-07T01:09:47;21.00;76.60
15394;DHT22;7795;47.986;11.868;2022-08-07T01:12:13;21.00;76.60
15394;DHT22;7795;47.986;11.868;2022-08-07T01:14:40;21.00;76.60
15394;DHT22;7795;47.986;11.868;2022-08-07T01:17:06;21.00;76.50
15394;DHT22;7795;47.986;11.868;2022-08-07T01:19:34;21.00;76.50
15394;DHT22;7795;47.986;11.868;2022-08-07T01:22:03;21.00;76.30
15394;DHT22;7795;47.986;11.868;2022-08-07T01:24:29;20.90;76.00
15394;DHT22;7795;47.986;11.868;2022-08-07T01:26:56;20.90;75.90
15394;DHT22;7795;47.986;11.868;2022-08-07T01:29:23;20.90;75.90
15394;DHT22;7795;47.986;11.868;2022-08-07T01:31:50;20.90;75.80
15394;DHT22;7795;47.986;11.868;2022-08-07T01:34:16;20.90;75.80
15394;DHT22;7795;47.986;11.868;2022-08-07T01:36:42;20.80;75.60
15394;DHT22;7795;47.986;11.868;2022-08-07T01:39:10;20.80;75.80
15394;DHT22;7795;47.986;11.868;2022-08-07T01:41:36;20.80;75.80
15394;DHT22;7795;47.986;11.868;2022-08-07T01:44:03;20.80;75.80
15394;DHT22;7795;47.986;11.868;2022-08-07T01:46:29;20.70;75.80
15394;DHT22;7795;47.986;11.868;2022-08-07T01:48:55;20.70;75.90
15394;DHT22;7795;47.986;11.868;2022-08-07T01:51:23;20.70;75.90
15394;DHT22;7795;47.986;11.868;2022-08-07T01:53:51;20.70;75.90
15394;DHT22;7795;47.986;11.868;2022-08-07T01:56:23;20.70;75.80
15394;DHT22;7795;47.986;11.868;2022-08-07T01:58:52;20.60;75.80
15394;DHT22;7795;47.986;11.868;2022-08-07T02:01:21;20.70;75.80
15394;DHT22;7795;47.986;11.868;2022-08-07T02:03:54;20.60;75.70
15394;DHT22;7795;47.986;11.868;2022-08-07T02:06:21;20.60;75.80
15394;DHT22;7795;47.986;11.868;2022-08-07T02:08:51;20.60;76.70
15394;DHT22;7795;47.986;11.868;2022-08-07T02:11:17;20.60;76.00
15394;DHT22;7795;47.986;11.868;2022-08-07T02:13:45;20.60;75.90
15394;DHT22;7795;47.986;11.868;2022-08-07T02:16:13;20.60;75.80
15394;DHT22;7795;47.986;11.868;2022-08-07T02:18:41;20.60;75.90
15394;DHT22;7795;47.986;11.868;2022-08-07T02:21:08;20.60;75.90
15394;DHT22;7795;47.986;11.868;2022-08-07T02:23:37;20.60;76.60
15394;DHT22;7795;47.986;11.868;2022-08-07T02:26:04;20.50;75.70
15394;DHT22;7795;47.986;11.868;2022-08-07T02:28:32;20.50;75.80
15394;DHT22;7795;47.986;11.868;2022-08-07T02:31:01;20.50;75.70
15394;DHT22;7795;47.986;11.868;2022-08-07T02:33:28;20.50;75.80
15394;DHT22;7795;47.986;11.868;2022-08-07T02:35:54;20.50;75.90
15394;DHT22;7795;47.986;11.868;2022-08-07T02:38:24;20.50;76.00
15394;DHT22;7795;47.986;11.868;2022-08-07T02:40:51;20.50;75.90
15394;DHT22;7795;47.986;11.868;2022-08-07T02:43:18;20.50;75.90
15394;DHT22;7795;47.986;11.868;2022-08-07T02:45:44;20.50;76.10
15394;DHT22;7795;47.986;11.868;2022-08-07T02:48:13;20.50;76.20
15394;DHT22;7795;47.986;11.868;2022-08-07T02:50:42;20.50;76.20
15394;DHT22;7795;47.986;11.868;2022-08-07T02:53:11;20.50;76.10
15394;DHT22;7795;47.986;11.868;2022-08-07T02:55:43;20.50;76.10
15394;DHT22;7795;47.986;11.868;2022-08-07T02:58:13;20.50;76.10
15394;DHT22;7795;47.986;11.868;2022-08-07T03:00:40;20.50;76.10
15394;DHT22;7795;47.986;11.868;2022-08-07T03:03:08;20.40;76.10
15394;DHT22;7795;47.986;11.868;2022-08-07T03:05:36;20.40;76.10
15394;DHT22;7795;47.986;11.868;2022-08-07T03:08:04;20.40;76.00
15394;DHT22;7795;47.986;11.868;2022-08-07T03:10:32;20.40;75.90
15394;DHT22;7795;47.986;11.868;2022-08-07T03:12:58;20.30;75.90
15394;DHT22;7795;47.986;11.868;2022-08-07T03:15:26;20.40;76.10
15394;DHT22;7795;47.986;11.868;2022-08-07T03:17:52;20.30;76.00
15394;DHT22;7795;47.986;11.868;2022-08-07T03:20:18;20.30;76.00
15394;DHT22;7795;47.986;11.868;2022-08-07T03:22:46;20.30;76.00
15394;DHT22;7795;47.986;11.868;2022-08-07T03:25:13;20.30;76.00
15394;DHT22;7795;47.986;11.868;2022-08-07T03:27:39;20.30;75.80
15394;DHT22;7795;47.986;11.868;2022-08-07T03:30:07;20.30;75.70
15394;DHT22;7795;47.986;11.868;2022-08-07T03:32:40;20.30;75.70
15394;DHT22;7795;47.986;11.868;2022-08-07T03:35:10;20.30;75.50
15394;DHT22;7795;47.986;11.868;2022-08-07T03:37:38;20.30;75.50
15394;DHT22;7795;47.986;11.868;2022-08-07T03:40:06;20.30;75.30
15394;DHT22;7795;47.986;11.868;2022-08-07T03:42:34;20.30;75.20
15394;DHT22;7795;47.986;11.868;2022-08-07T03:45:01;20.20;75.20
15394;DHT22;7795;47.986;11.868;2022-08-07T03:47:28;20.20;75.20
15394;DHT22;7795;47.986;11.868;2022-08-07T03:49:55;20.20;75.20
15394;DHT22;7795;47.986;11.868;2022-08-07T03:52:24;20.20;75.10
15394;DHT22;7795;47.986;11.868;2022-08-07T03:54:51;20.20;75.00
15394;DHT22;7795;47.986;11.868;2022-08-07T03:57:19;20.20;74.90
15394;DHT22;7795;47.986;11.868;2022-08-07T03:59:45;20.20;74.70
15394;DHT22;7795;47.986;11.868;2022-08-07T04:02:11;20.20;74.50
15394;DHT22;7795;47.986;11.868;2022-08-07T04:04:38;20.20;74.50
15394;DHT22;7795;47.986;11.868;2022-08-07T04:07:06;20.20;74.50
15394;DHT22;7795;47.986;11.868;2022-08-07T04:09:34;20.20;74.50
15394;DHT22;7795;47.986;11.868;2022-08-07T04:12:00;20.10;74.40
15394;DHT22;7795;47.986;11.868;2022-08-07T04:14:27;20.10;74.50
15394;DHT22;7795;47.986;11.868;2022-08-07T04:16:53;20.10;74.50
15394;DHT22;7795;47.986;11.868;2022-08-07T04:19:19;20.20;74.60
15394;DHT22;7795;47.986;11.868;2022-08-07T04:21:45;20.20;74.60
15394;DHT22;7795;47.986;11.868;2022-08-07T04:24:11;20.10;74.60
15394;DHT22;7795;47.986;11.868;2022-08-07T04:26:38;20.10;74.60
15394;DHT22;7795;47.986;11.868;2022-08-07T04:29:06;20.10;74.80
15394;DHT22;7795;47.986;11.868;2022-08-07T04:31:37;20.20;74.80
15394;DHT22;7795;47.986;11.868;2022-08-07T04:34:03;20.20;74.70
15394;DHT22;7795;47.986;11.868;2022-08-07T04:36:29;20.20;74.80
15394;DHT22;7795;47.986;11.868;2022-08-07T04:38:55;20.20;74.70
15394;DHT22;7795;47.986;11.868;2022-08-07T04:41:21;20.10;74.50
15394;DHT22;7795;47.986;11.868;2022-08-07T04:43:47;20.20;74.50
15394;DHT22;7795;47.986;11.868;2022-08-07T04:46:19;20.10;74.50
15394;DHT22;7795;47.986;11.868;2022-08-07T04:48:55;20.10;74.50
15394;DHT22;7795;47.986;11.868;2022-08-07T04:51:36;20.10;75.30
15394;DHT22;7795;47.986;11.868;2022-08-07T04:54:14;20.10;74.60
15394;DHT22;7795;47.986;11.868;2022-08-07T04:56:46;20.10;74.30
15394;DHT22;7795;47.986;11.868;2022-08-07T04:59:17;20.10;74.40
15394;DHT22;7795;47.986;11.868;2022-08-07T05:01:50;20.10;74.50
15394;DHT22;7795;47.986;11.868;2022-08-07T05:04:30;20.10;74.30
15394;DHT22;7795;47.986;11.868;2022-08-07T05:07:04;20.10;73.90
15394;DHT22;7795;47.986;11.868;2022-08-07T05:09:39;20.10;74.00
15394;DHT22;7795;47.986;11.868;2022-08-07T05:12:08;20.10;73.90
15394;DHT22;7795;47.986;11.868;2022-08-07T05:14:37;20.10;73.90
15394;DHT22;7795;47.986;11.868;2022-08-07T05:17:07;20.10;74.00
15394;DHT22;7795;47.986;11.868;2022-08-07T05:19:39;20.10;74.00
15394;DHT22;7795;47.986;11.868;2022-08-07T05:22:07;20.10;73.90
15394;DHT22;7795;47.986;11.868;2022-08-07T05:24:35;20.10;73.90
15394;DHT22;7795;47.986;11.868;2022-08-07T05:27:02;20.10;74.30
15394;DHT22;7795;47.986;11.868;2022-08-07T05:29:31;20.10;73.80
15394;DHT22;7795;47.986;11.868;2022-08-07T05:31:57;20.10;73.80
15394;DHT22;7795;47.986;11.868;2022-08-07T05:34:25;20.10;73.70
15394;DHT22;7795;47.986;11.868;2022-08-07T05:36:54;20.10;73.70
15394;DHT22;7795;47.986;11.868;2022-08-07T05:39:21;20.20;73.60
15394;DHT22;7795;47.986;11.868;2022-08-07T05:41:48;20.20;73.50
15394;DHT22;7795;47.986;11.868;2022-08-07T05:44:16;20.20;73.50
15394;DHT22;7795;47.986;11.868;2022-08-07T05:46:43;20.20;73.50
15394;DHT22;7795;47.986;11.868;2022-08-07T05:49:10;20.20;73.60
15394;DHT22;7795;47.986;11.868;2022-08-07T05:51:36;20.30;73.40
15394;DHT22;7795;47.986;11.868;2022-08-07T05:54:05;20.30;73.20
15394;DHT22;7795;47.986;11.868;2022-08-07T05:56:33;20.30;73.00
15394;DHT22;7795;47.986;11.868;2022-08-07T05:59:01;20.40;73.20
15394;DHT22;7795;47.986;11.868;2022-08-07T06:01:29;20.40;73.20
15394;DHT22;7795;47.986;11.868;2022-08-07T06:03:55;20.40;73.20
15394;DHT22;7795;47.986;11.868;2022-08-07T06:06:22;20.50;73.00
15394;DHT22;7795;47.986;11.868;2022-08-07T06:08:48;20.50;72.90
15394;DHT22;7795;47.986;11.868;2022-08-07T06:11:17;20.60;72.80
15394;DHT22;7795;47.986;11.868;2022-08-07T06:13:43;20.60;72.60
15394;DHT22;7795;47.986;11.868;2022-08-07T06:16:09;20.60;72.60
15394;DHT22;7795;47.986;11.868;2022-08-07T06:18:35;20.60;72.40
15394;DHT22;7795;47.986;11.868;2022-08-07T06:21:03;20.70;73.30
15394;DHT22;7795;47.986;11.868;2022-08-07T06:23:30;20.70;72.30
15394;DHT22;7795;47.986;11.868;2022-08-07T06:25:56;20.70;72.20
15394;DHT22;7795;47.986;11.868;2022-08-07T06:28:23;20.70;72.90
15394;DHT22;7795;47.986;11.868;2022-08-07T06:30:49;20.80;72.20
15394;DHT22;7795;47.986;11.868;2022-08-07T06:33:16;20.80;72.20
15394;DHT22;7795;47.986;11.868;2022-08-07T06:35:42;20.80;72.00
15394;DHT22;7795;47.986;11.868;2022-08-07T06:38:08;20.90;72.10
15394;DHT22;7795;47.986;11.868;2022-08-07T06:40:38;20.90;71.90
15394;DHT22;7795;47.986;11.868;2022-08-07T06:43:06;21.00;71.50
15394;DHT22;7795;47.986;11.868;2022-08-07T06:45:35;21.00;71.60
15394;DHT22;7795;47.986;11.868;2022-08-07T06:48:01;21.00;71.40
15394;DHT22;7795;47.986;11.868;2022-08-07T06:50:28;21.10;71.40
15394;DHT22;7795;47.986;11.868;2022-08-07T06:52:56;21.10;71.20
15394;DHT22;7795;47.986;11.868;2022-08-07T06:55:29;21.20;70.90
15394;DHT22;7795;47.986;11.868;2022-08-07T06:58:00;21.20;70.70
15394;DHT22;7795;47.986;11.868;2022-08-07T07:00:30;21.30;71.10
15394;DHT22;7795;47.986;11.868;2022-08-07T07:02:58;21.30;70.70
15394;DHT22;7795;47.986;11.868;2022-08-07T07:05:24;21.30;70.70
15394;DHT22;7795;47.986;11.868;2022-08-07T07:07:50;21.40;70.40
15394;DHT22;7795;47.986;11.868;2022-08-07T07:10:24;21.40;70.20
15394;DHT22;7795;47.986;11.868;2022-08-07T07:12:52;21.50;70.40
15394;DHT22;7795;47.986;11.868;2022-08-07T07:15:22;21.60;70.20
15394;DHT22;7795;47.986;11.868;2022-08-07T07:18:04;21.60;69.70
15394;DHT22;7795;47.986;11.868;2022-08-07T07:20:36;21.60;69.20
15394;DHT22;7795;47.986;11.868;2022-08-07T07:23:05;21.60;69.70
15394;DHT22;7795;47.986;11.868;2022-08-07T07:25:33;21.60;69.60
15394;DHT22;7795;47.986;11.868;2022-08-07T07:28:04;21.70;69.60
15394;DHT22;7795;47.986;11.868;2022-08-07T07:30:38;21.80;69.30
15394;DHT22;7795;47.986;11.868;2022-08-07T07:33:09;21.70;68.90
15394;DHT22;7795;47.986;11.868;2022-08-07T07:35:35;21.80;68.90
15394;DHT22;7795;47.986;11.868;2022-08-07T07:38:02;21.80;68.90
15394;DHT22;7795;47.986;11.868;2022-08-07T07:40:31;21.80;68.80
15394;DHT22;7795;47.986;11.868;2022-08-07T07:42:59;21.80;68.70
15394;DHT22;7795;47.986;11.868;2022-08-07T07:45:29;21.80;68.60
15394;DHT22;7795;47.986;11.868;2022-08-07T07:47:57;21.90;68.70
15394;DHT22;7795;47.986;11.868;2022-08-07T07:50:26;21.90;68.60
15394;DHT22;7795;47.986;11.868;2022-08-07T07:52:54;21.90;68.50
15394;DHT22;7795;47.986;11.868;2022-08-07T07:55:21;22.00;68.40
15394;DHT22;7795;47.986;11.868;2022-08-07T07:57:48;22.00;68.30
15394;DHT22;7795;47.986;11.868;2022-08-07T08:00:15;22.00;68.10
15394;DHT22;7795;47.986;11.868;2022-08-07T08:02:41;22.10;68.10
15394;DHT22;7795;47.986;11.868;2022-08-07T08:05:09;22.20;67.90
15394;DHT22;7795;47.986;11.868;2022-08-07T08:07:37;22.20;67.90
15394;DHT22;7795;47.986;11.868;2022-08-07T08:10:05;22.20;67.80
15394;DHT22;7795;47.986;11.868;2022-08-07T08:12:32;22.30;67.70
15394;DHT22;7795;47.986;11.868;2022-08-07T08:14:59;22.30;67.60
15394;DHT22;7795;47.986;11.868;2022-08-07T08:17:26;22.40;67.80
15394;DHT22;7795;47.986;11.868;2022-08-07T08:19:55;22.40;67.70
15394;DHT22;7795;47.986;11.868;2022-08-07T08:22:23;22.50;67.80
15394;DHT22;7795;47.986;11.868;2022-08-07T08:25:10;22.60;67.80
15394;DHT22;7795;47.986;11.868;2022-08-07T08:27:56;22.60;67.40
15394;DHT22;7795;47.986;11.868;2022-08-07T08:30:23;22.70;67.20
15394;DHT22;7795;47.986;11.868;2022-08-07T08:32:52;22.80;67.10
15394;DHT22;7795;47.986;11.868;2022-08-07T08:35:22;22.80;67.30
15394;DHT22;7795;47.986;11.868;2022-08-07T08:37:49;22.90;66.40
15394;DHT22;7795;47.986;11.868;2022-08-07T08:40:20;22.90;66.30
15394;DHT22;7795;47.986;11.868;2022-08-07T08:42:53;23.00;65.60
15394;DHT22;7795;47.986;11.868;2022-08-07T08:45:24;23.00;65.70
15394;DHT22;7795;47.986;11.868;2022-08-07T08:47:59;23.10;65.80
15394;DHT22;7795;47.986;11.868;2022-08-07T08:50:31;23.10;65.10
15394;DHT22;7795;47.986;11.868;2022-08-07T08:53:04;23.20;65.10
15394;DHT22;7795;47.986;11.868;2022-08-07T08:55:37;23.20;65.00
15394;DHT22;7795;47.986;11.868;2022-08-07T08:58:09;23.30;64.60
15394;DHT22;7795;47.986;11.868;2022-08-07T09:00:42;23.30;64.50
15394;DHT22;7795;47.986;11.868;2022-08-07T09:03:18;23.30;63.90
15394;DHT22;7795;47.986;11.868;2022-08-07T09:05:52;23.30;63.70
15394;DHT22;7795;47.986;11.868;2022-08-07T09:08:27;23.40;63.50
15394;DHT22;7795;47.986;11.868;2022-08-07T09:11:01;23.40;63.50
15394;DHT22;7795;47.986;11.868;2022-08-07T09:13:36;23.40;63.00
15394;DHT22;7795;47.986;11.868;2022-08-07T09:16:07;23.40;63.00
15394;DHT22;7795;47.986;11.868;2022-08-07T09:18:55;23.40;63.10
15394;DHT22;7795;47.986;11.868;2022-08-07T09:21:32;23.40;62.50
15394;DHT22;7795;47.986;11.868;2022-08-07T09:24:11;23.40;63.10
15394;DHT22;7795;47.986;11.868;2022-08-07T09:26:47;23.40;63.10
15394;DHT22;7795;47.986;11.868;2022-08-07T09:29:32;23.50;63.10
15394;DHT22;7795;47.986;11.868;2022-08-07T09:32:12;23.50;64.00
15394;DHT22;7795;47.986;11.868;2022-08-07T09:34:59;23.60;63.60
15394;DHT22;7795;47.986;11.868;2022-08-07T09:37:35;23.70;63.70
15394;DHT22;7795;47.986;11.868;2022-08-07T09:40:12;23.70;63.00
15394;DHT22;7795;47.986;11.868;2022-08-07T09:42:51;23.80;62.70
15394;DHT22;7795;47.986;11.868;2022-08-07T09:45:22;23.80;62.40
15394;DHT22;7795;47.986;11.868;2022-08-07T09:48:05;23.90;62.80
15394;DHT22;7795;47.986;11.868;2022-08-07T09:50:43;24.00;62.10
15394;DHT22;7795;47.986;11.868;2022-08-07T09:53:12;24.10;61.70
15394;DHT22;7795;47.986;11.868;2022-08-07T09:55:51;24.10;61.50
15394;DHT22;7795;47.986;11.868;2022-08-07T10:01:40;24.20;61.50
15394;DHT22;7795;47.986;11.868;2022-08-07T10:04:18;24.30;61.10
15394;DHT22;7795;47.986;11.868;2022-08-07T10:07:01;24.30;61.20
15394;DHT22;7795;47.986;11.868;2022-08-07T10:09:49;24.40;61.40
15394;DHT22;7795;47.986;11.868;2022-08-07T10:12:33;24.40;61.00
15394;DHT22;7795;47.986;11.868;2022-08-07T10:15:19;24.50;61.00
15394;DHT22;7795;47.986;11.868;2022-08-07T10:18:13;24.60;61.00
15394;DHT22;7795;47.986;11.868;2022-08-07T10:20:55;24.70;60.70
15394;DHT22;7795;47.986;11.868;2022-08-07T10:23:38;24.80;60.20
15394;DHT22;7795;47.986;11.868;2022-08-07T10:26:20;24.80;60.00
15394;DHT22;7795;47.986;11.868;2022-08-07T10:29:00;24.90;60.00
15394;DHT22;7795;47.986;11.868;2022-08-07T10:34:34;25.00;59.70
15394;DHT22;7795;47.986;11.868;2022-08-07T10:37:10;25.00;59.50
15394;DHT22;7795;47.986;11.868;2022-08-07T10:39:45;25.10;59.30
15394;DHT22;7795;47.986;11.868;2022-08-07T10:42:27;25.10;59.00
15394;DHT22;7795;47.986;11.868;2022-08-07T10:45:00;25.20;59.00
15394;DHT22;7795;47.986;11.868;2022-08-07T10:47:44;25.20;59.10
15394;DHT22;7795;47.986;11.868;2022-08-07T10:50:16;25.20;58.80
15394;DHT22;7795;47.986;11.868;2022-08-07T10:52:52;25.20;59.10
15394;DHT22;7795;47.986;11.868;2022-08-07T10:55:22;25.30;58.90
15394;DHT22;7795;47.986;11.868;2022-08-07T10:57:58;25.30;58.70
15394;DHT22;7795;47.986;11.868;2022-08-07T11:00:33;25.30;58.70
15394;DHT22;7795;47.986;11.868;2022-08-07T11:03:06;25.30;58.90
15394;DHT22;7795;47.986;11.868;2022-08-07T11:05:43;25.40;59.70
15394;DHT22;7795;47.986;11.868;2022-08-07T11:08:33;25.40;58.70
15394;DHT22;7795;47.986;11.868;2022-08-07T11:11:06;25.40;58.70
15394;DHT22;7795;47.986;11.868;2022-08-07T11:13:37;25.40;58.60
15394;DHT22;7795;47.986;11.868;2022-08-07T11:16:07;25.50;58.70
15394;DHT22;7795;47.986;11.868;2022-08-07T11:18:38;25.50;58.70
15394;DHT22;7795;47.986;11.868;2022-08-07T11:21:10;25.60;58.70
15394;DHT22;7795;47.986;11.868;2022-08-07T11:23:46;25.60;58.80
15394;DHT22;7795;47.986;11.868;2022-08-07T11:26:23;25.70;58.50
15394;DHT22;7795;47.986;11.868;2022-08-07T11:28:55;25.80;58.10
15394;DHT22;7795;47.986;11.868;2022-08-07T11:31:28;25.90;58.20
15394;DHT22;7795;47.986;11.868;2022-08-07T11:34:04;25.90;58.00
15394;DHT22;7795;47.986;11.868;2022-08-07T11:36:46;26.00;58.10
15394;DHT22;7795;47.986;11.868;2022-08-07T11:39:31;26.00;57.20
15394;DHT22;7795;47.986;11.868;2022-08-07T11:42:09;26.10;56.90
15394;DHT22;7795;47.986;11.868;2022-08-07T11:44:42;26.10;57.10
15394;DHT22;7795;47.986;11.868;2022-08-07T11:47:22;26.20;57.10
15394;DHT22;7795;47.986;11.868;2022-08-07T11:50:06;26.20;57.00
15394;DHT22;7795;47.986;11.868;2022-08-07T11:52:44;26.20;56.40
15394;DHT22;7795;47.986;11.868;2022-08-07T11:55:23;26.20;56.00
15394;DHT22;7795;47.986;11.868;2022-08-07T11:57:54;26.20;56.10
15394;DHT22;7795;47.986;11.868;2022-08-07T12:00:29;26.20;56.10
15394;DHT22;7795;47.986;11.868;2022-08-07T12:05:54;26.30;56.50
15394;DHT22;7795;47.986;11.868;2022-08-07T12:08:28;26.30;55.50
15394;DHT22;7795;47.986;11.868;2022-08-07T12:10:56;26.30;56.10
15394;DHT22;7795;47.986;11.868;2022-08-07T12:13:27;26.30;56.40
15394;DHT22;7795;47.986;11.868;2022-08-07T12:15:58;26.30;56.20
15394;DHT22;7795;47.986;11.868;2022-08-07T12:18:35;26.30;56.00
15394;DHT22;7795;47.986;11.868;2022-08-07T12:21:15;26.30;55.50
15394;DHT22;7795;47.986;11.868;2022-08-07T12:23:49;26.30;55.30
15394;DHT22;7795;47.986;11.868;2022-08-07T12:26:24;26.30;55.10
15394;DHT22;7795;47.986;11.868;2022-08-07T12:28:59;26.30;55.30
15394;DHT22;7795;47.986;11.868;2022-08-07T12:31:30;26.30;55.10
15394;DHT22;7795;47.986;11.868;2022-08-07T12:33:58;26.30;55.20
15394;DHT22;7795;47.986;11.868;2022-08-07T12:36:26;26.30;55.40
15394;DHT22;7795;47.986;11.868;2022-08-07T12:38:53;26.30;55.00
15394;DHT22;7795;47.986;11.868;2022-08-07T12:41:23;26.30;55.40
15394;DHT22;7795;47.986;11.868;2022-08-07T12:43:51;26.30;54.80
15394;DHT22;7795;47.986;11.868;2022-08-07T12:46:31;26.30;54.60
15394;DHT22;7795;47.986;11.868;2022-08-07T12:49:04;26.30;54.30
15394;DHT22;7795;47.986;11.868;2022-08-07T12:51:40;26.30;54.30
15394;DHT22;7795;47.986;11.868;2022-08-07T12:54:13;26.30;54.30
15394;DHT22;7795;47.986;11.868;2022-08-07T12:56:44;26.30;54.30
15394;DHT22;7795;47.986;11.868;2022-08-07T12:59:16;26.30;54.20
15394;DHT22;7795;47.986;11.868;2022-08-07T13:01:52;26.30;54.00
15394;DHT22;7795;47.986;11.868;2022-08-07T13:04:43;26.40;54.00
15394;DHT22;7795;47.986;11.868;2022-08-07T13:07:21;26.40;54.10
15394;DHT22;7795;47.986;11.868;2022-08-07T13:10:03;26.40;53.60
15394;DHT22;7795;47.986;11.868;2022-08-07T13:12:50;26.50;53.70
15394;DHT22;7795;47.986;11.868;2022-08-07T13:15:25;26.50;53.80
15394;DHT22;7795;47.986;11.868;2022-08-07T13:18:05;26.50;54.30
15394;DHT22;7795;47.986;11.868;2022-08-07T13:20:42;26.50;53.80
15394;DHT22;7795;47.986;11.868;2022-08-07T13:23:16;26.60;53.70
15394;DHT22;7795;47.986;11.868;2022-08-07T13:25:47;26.60;53.60
15394;DHT22;7795;47.986;11.868;2022-08-07T13:28:17;26.70;53.80
15394;DHT22;7795;47.986;11.868;2022-08-07T13:30:53;26.70;53.80
15394;DHT22;7795;47.986;11.868;2022-08-07T13:33:26;26.70;53.10
15394;DHT22;7795;47.986;11.868;2022-08-07T13:35:56;26.80;52.80
15394;DHT22;7795;47.986;11.868;2022-08-07T13:38:28;26.80;52.60
15394;DHT22;7795;47.986;11.868;2022-08-07T13:41:01;26.80;52.80
15394;DHT22;7795;47.986;11.868;2022-08-07T13:43:30;26.80;52.70
15394;DHT22;7795;47.986;11.868;2022-08-07T13:46:00;26.80;53.10
15394;DHT22;7795;47.986;11.868;2022-08-07T13:48:29;26.80;52.40
15394;DHT22;7795;47.986;11.868;2022-08-07T13:50:57;26.90;52.10
15394;DHT22;7795;47.986;11.868;2022-08-07T13:53:29;26.90;52.40
15394;DHT22;7795;47.986;11.868;2022-08-07T13:55:57;26.90;52.00
15394;DHT22;7795;47.986;11.868;2022-08-07T13:58:24;26.90;53.00
15394;DHT22;7795;47.986;11.868;2022-08-07T14:01:11;26.90;52.70
15394;DHT22;7795;47.986;11.868;2022-08-07T14:03:38;26.90;52.30
15394;DHT22;7795;47.986;11.868;2022-08-07T14:06:06;26.90;52.60
15394;DHT22;7795;47.986;11.868;2022-08-07T14:08:38;26.90;52.30
15394;DHT22;7795;47.986;11.868;2022-08-07T14:11:08;26.90;52.20
15394;DHT22;7795;47.986;11.868;2022-08-07T14:13:37;27.00;52.20
15394;DHT22;7795;47.986;11.868;2022-08-07T14:16:06;27.00;52.00
15394;DHT22;7795;47.986;11.868;2022-08-07T14:18:38;27.00;52.00
15394;DHT22;7795;47.986;11.868;2022-08-07T14:21:10;27.00;51.90
15394;DHT22;7795;47.986;11.868;2022-08-07T14:23:42;27.10;51.70
15394;DHT22;7795;47.986;11.868;2022-08-07T14:26:14;27.10;51.80
15394;DHT22;7795;47.986;11.868;2022-08-07T14:28:43;27.10;51.70
15394;DHT22;7795;47.986;11.868;2022-08-07T14:31:11;27.10;51.50
15394;DHT22;7795;47.986;11.868;2022-08-07T14:33:38;27.20;51.50
15394;DHT22;7795;47.986;11.868;2022-08-07T14:36:05;27.20;51.70
15394;DHT22;7795;47.986;11.868;2022-08-07T14:38:33;27.20;51.50
15394;DHT22;7795;47.986;11.868;2022-08-07T14:41:03;27.30;51.10
15394;DHT22;7795;47.986;11.868;2022-08-07T14:43:31;27.30;51.00
15394;DHT22;7795;47.986;11.868;2022-08-07T14:45:59;27.30;50.90
15394;DHT22;7795;47.986;11.868;2022-08-07T14:48:26;27.40;50.90
15394;DHT22;7795;47.986;11.868;2022-08-07T14:50:55;27.40;50.70
15394;DHT22;7795;47.986;11.868;2022-08-07T14:53:24;27.40;50.70
15394;DHT22;7795;47.986;11.868;2022-08-07T14:55:51;27.40;50.80
15394;DHT22;7795;47.986;11.868;2022-08-07T14:58:23;27.40;50.70
15394;DHT22;7795;47.986;11.868;2022-08-07T15:00:50;27.40;51.00
15394;DHT22;7795;47.986;11.868;2022-08-07T15:03:21;27.40;50.80
15394;DHT22;7795;47.986;11.868;2022-08-07T15:05:48;27.40;51.20
15394;DHT22;7795;47.986;11.868;2022-08-07T15:08:22;27.40;51.30
15394;DHT22;7795;47.986;11.868;2022-08-07T15:10:55;27.40;50.70
15394;DHT22;7795;47.986;11.868;2022-08-07T15:13:25;27.40;50.50
15394;DHT22;7795;47.986;11.868;2022-08-07T15:15:56;27.50;50.60
15394;DHT22;7795;47.986;11.868;2022-08-07T15:18:32;27.50;50.60
15394;DHT22;7795;47.986;11.868;2022-08-07T15:20:59;27.50;50.30
15394;DHT22;7795;47.986;11.868;2022-08-07T15:23:29;27.50;50.70
15394;DHT22;7795;47.986;11.868;2022-08-07T15:25:58;27.40;50.80
15394;DHT22;7795;47.986;11.868;2022-08-07T15:28:28;27.40;50.90
15394;DHT22;7795;47.986;11.868;2022-08-07T15:31:00;27.40;50.80
15394;DHT22;7795;47.986;11.868;2022-08-07T15:33:27;27.40;50.30
15394;DHT22;7795;47.986;11.868;2022-08-07T15:35:55;27.40;50.60
15394;DHT22;7795;47.986;11.868;2022-08-07T15:38:26;27.40;50.50
15394;DHT22;7795;47.986;11.868;2022-08-07T15:40:52;27.30;50.90
15394;DHT22;7795;47.986;11.868;2022-08-07T15:43:22;27.30;51.10
15394;DHT22;7795;47.986;11.868;2022-08-07T15:45:51;27.30;51.20
15394;DHT22;7795;47.986;11.868;2022-08-07T15:48:22;27.20;50.70
15394;DHT22;7795;47.986;11.868;2022-08-07T15:50:50;27.20;51.00
15394;DHT22;7795;47.986;11.868;2022-08-07T15:53:24;27.20;51.10
15394;DHT22;7795;47.986;11.868;2022-08-07T15:55:53;27.10;50.70
15394;DHT22;7795;47.986;11.868;2022-08-07T15:58:27;27.10;50.80
15394;DHT22;7795;47.986;11.868;2022-08-07T16:00:58;27.10;51.10